Hovedside
METAR-TAF:

METAR-TAF

Lufthavner :

Sandane lufthamn. Anda

Sandane, Norge

breddegrad: 61-50N, lengdegrad: 006-07E, høyde over havet: 6 m

Gjeldene værobservasjon

Denne rapporten ble laget for 6 timer og 45 minutter siden, klokken 10:50 UTC
Vind 9 kt fra Nordvest, skiftende mellom Vest og Nord
Temperatur 18°C
Luftfuktighet 56%
Trykk 1031 hPa
Sikt 10 km eller mer
ingen skyer under 1500 m og ingen bygeskyer

METAR: ENSD 261050Z 32009KT 280V350 CAVOK 18/09 Q1031 RMK WIND 1138FT 29007KT

Tid: 19:35 (17:35 UTC)


TAF: fraværende

Værobservasjoner og værvarsel for over 4000 flyplasser (METAR- og TAF-rapporter).

Tilgjengelige stasjoner er representert av de røde og gule prikkene på kartet.

Hold musepekeren over prikken for å se navnet på stasjonen.

Klikk så for å se værobservasjoner og -varsler.

For å forandre kartet kan du klikke på den grønne knappen med svart kryss for å zoome inn, på den grønne knappen med strek for å zoome ut, eller på de grønne pilene for å se tilstøtende kart.


METAR-TAF: